Leesburg, FL

9:49 PM EDT on April 28, 2017 (GMT -0400)
Leesburg Regional | | Change Station

Elev 75 ft 28.82 °N, 81.81 °W | Updated 56 minutes ago

Clear
Clear
84 °F
Feels Like 88 °F
N
12
Wind Variable Wind from ESE

Today
High -- | Low -- °F
--% Chance of Precip.
Yesterday
High -- | Low -- °F
Precip. -- in
Pressure 30.07 in
Visibility 10.0 miles
Clouds Clear
Heat Index 88 °F
Dew Point 69 °F
Humidity 61%
Rainfall 0.00 in
Snow Depth Not available.
6:48 AM 8:01 PM
Waxing Crescent, 10% visible
METAR KLEE 290053Z AUTO 12010KT 10SM CLR 29/21 A3007 RMK AO2 SLP182 T02890206
Pressure 30.07 in
Visibility 10.0 miles
Clouds Clear
Heat Index 88 °F
Dew Point 69 °F
Humidity 61%
Rainfall 0.00 in
Snow Depth Not available.
6:48 AM 8:01 PM
Waxing Crescent, 10% visible
METAR KLEE 290053Z AUTO 12010KT 10SM CLR 29/21 A3007 RMK AO2 SLP182 T02890206

Get Severe Weather Alerts

Thanks for signing up!

Be on the lookout for a verification email in your inbox.

You'll start receiving the daily forecast at 8 AM.

×

10-Day Weather Forecast

Almanac

Astronomy

Apr. 28, 2017 Rise Set
Actual Time
Civil Twilight
Nautical Twilight
Astronomical Twilight
Moon
Length of Visible Light
Length of Day
Tomorrow will be .
, % of the Moon is Illuminated

Today's Extremes

State Highs State Lows

Community

WunderPhotos

WunderBlog® & News

Nearby

Air Quality

  Air Quality AQ Index Pollutant
Not available.

Snow Depth

Station Depth Elevation

Earthquake Activity

City Distance Mag. Time & Date
Minimum magnitude displayed is 2.5.

Coastal Water Temperatures

Place Temperature

Stations

Nearby Weather Stations

Station Location Temp. Windchill Dew Point Humidity Wind Precip. Elev Updated Type
                   

Watches & Warnings

There are currently no watches in effect.